Time;durP1;ratioP1;P1;durP2;ratioP2;P2;SDS_P1;SDS_P2;PMS_P1;PMS_P2;Temp;Humidity;BMP_temperature;BMP_pressure;BME280_temperature;BME280_humidity;BME280_pressure;Samples;Min_cycle;Max_cycle;Signal;HPM_P1;HPM_P2
2022/06/09 00:01:04;;;;;;;12.45;7.85;;;;;;;18.59;78.71;94647.75;4950453;29;20084;-83
2022/06/09 00:03:43;;;;;;;18.10;9.85;;;;;;;18.78;78.54;94662.16;4953824;29;20501;-82
2022/06/09 00:06:10;;;;;;;16.17;8.15;;;;;;;17.83;78.80;94520.34;4935596;29;20122;-83
2022/06/09 00:08:38;;;;;;;16.15;8.40;;;;;;;17.96;78.53;94543.38;4952703;29;20193;-83
2022/06/09 00:11:07;;;;;;;10.27;7.97;;;;;;;18.56;78.08;94624.22;4929468;29;20551;-82
2022/06/09 00:13:34;;;;;;;15.45;9.27;;;;;;;17.72;78.06;94481.66;4949773;29;20043;-83
2022/06/09 00:16:00;;;;;;;14.07;9.68;;;;;;;18.29;78.32;94564.75;4936138;29;20047;-83
2022/06/09 00:18:26;;;;;;;16.42;9.18;;;;;;;18.58;77.95;94630.06;4919879;29;20040;-83
2022/06/09 00:20:51;;;;;;;14.10;8.68;;;;;;;18.25;77.61;94571.88;4937707;29;20082;-82
2022/06/09 00:23:17;;;;;;;16.67;9.73;;;;;;;17.63;77.95;94494.41;4953498;29;20035;-83
2022/06/09 00:25:43;;;;;;;15.43;10.20;;;;;;;18.87;78.30;94676.28;4946772;29;20027;-82
2022/06/09 00:28:09;;;;;;;16.88;9.43;;;;;;;18.42;78.14;94619.97;4952752;28;20102;-83
2022/06/09 00:30:34;;;;;;;15.10;9.80;;;;;;;18.66;78.19;94650.66;4950623;29;20114;-83
2022/06/09 00:33:00;;;;;;;17.67;9.32;;;;;;;18.22;78.59;94586.00;4923256;29;20027;-83
2022/06/09 00:35:26;;;;;;;14.20;10.30;;;;;;;18.41;78.27;94591.56;4952698;29;20031;-82
2022/06/09 00:37:52;;;;;;;15.18;9.80;;;;;;;18.21;78.28;94560.28;4953245;29;20039;-83
2022/06/09 00:40:18;;;;;;;12.45;9.95;;;;;;;18.74;77.68;94653.25;4952415;28;20039;-83
2022/06/09 00:42:43;;;;;;;16.48;10.48;;;;;;;17.99;77.15;94533.88;4952769;29;20043;-83
2022/06/09 00:45:30;;;;;;;18.65;11.23;;;;;;;18.73;76.89;94648.97;4950826;29;20034;-83
2022/06/09 00:48:01;;;;;;;15.75;11.52;;;;;;;18.22;77.04;94567.22;4951492;29;20039;-83
2022/06/09 00:50:29;;;;;;;20.50;11.77;;;;;;;18.58;77.43;94630.06;4937876;29;20051;-83
2022/06/09 00:53:02;;;;;;;12.98;11.00;;;;;;;18.09;78.12;94539.56;4919844;29;20051;-83
2022/06/09 00:55:31;;;;;;;19.25;12.70;;;;;;;18.23;77.20;94579.50;4935751;29;20047;-83
2022/06/09 00:58:04;;;;;;;19.20;12.35;;;;;;;18.09;77.65;94546.84;4952032;29;20393;-83
2022/06/09 01:00:35;;;;;;;19.70;12.65;;;;;;;18.32;77.52;94584.75;4941056;29;20075;-83
2022/06/09 01:03:02;;;;;;;22.20;13.52;;;;;;;18.31;78.11;94577.84;4952719;29;20444;-83
2022/06/09 01:05:32;;;;;;;20.70;12.80;;;;;;;18.72;78.28;94641.25;4946197;29;20098;-83
2022/06/09 01:08:01;;;;;;;18.33;12.88;;;;;;;18.68;77.70;94651.13;4945652;29;20035;-83
2022/06/09 01:10:29;;;;;;;22.27;14.32;;;;;;;18.11;78.00;94550.75;4952152;29;20482;-83
2022/06/09 01:12:55;;;;;;;19.35;14.00;;;;;;;18.75;77.92;94654.03;4934759;29;20038;-83
2022/06/09 01:15:23;;;;;;;22.02;11.93;;;;;;;18.72;77.83;94650.09;4950741;29;20426;-83
2022/06/09 01:17:59;;;;;;;19.67;13.10;;;;;;;18.15;77.72;94577.72;4951828;28;20070;-83
2022/06/09 01:20:58;;;;;;;20.80;12.20;;;;;;;18.71;77.53;94639.69;4951009;29;20037;-83
2022/06/09 01:23:58;;;;;;;14.98;11.82;;;;;;;18.71;77.68;94634.31;4931608;29;20639;-83
2022/06/09 01:26:32;;;;;;;19.20;12.75;;;;;;;18.72;77.27;94643.94;4918330;29;20134;-83
2022/06/09 01:29:30;;;;;;;18.92;12.68;;;;;;;18.56;77.00;94633.09;4932847;29;20399;-83
2022/06/09 01:32:02;;;;;;;19.08;12.93;;;;;;;18.59;77.25;94635.13;4914327;29;20058;-83
2022/06/09 01:34:53;;;;;;;19.65;13.27;;;;;;;18.62;76.92;94631.75;4951589;28;20031;-83
2022/06/09 01:37:25;;;;;;;21.02;12.00;;;;;;;18.60;77.29;94620.56;4931579;29;20057;-83
2022/06/09 01:39:53;;;;;;;22.73;12.57;;;;;;;18.59;76.52;94621.69;4952406;28;20122;-83
2022/06/09 01:42:27;;;;;;;21.13;11.38;;;;;;;18.41;76.37;94623.00;4950948;29;20043;-83
2022/06/09 01:44:58;;;;;;;15.93;12.10;;;;;;;18.07;76.34;94578.59;4951969;29;20530;-83
2022/06/09 01:47:32;;;;;;;19.40;11.97;;;;;;;18.45;76.56;94629.28;4931680;29;20070;-83
2022/06/09 01:50:00;;;;;;;15.35;11.90;;;;;;;18.36;76.90;94599.06;4949577;28;20462;-83
2022/06/09 01:52:26;;;;;;;13.80;10.73;;;;;;;18.04;77.36;94561.28;4950087;29;20039;-82
2022/06/09 01:54:54;;;;;;;14.30;10.25;;;;;;;18.05;77.28;94567.41;4948919;29;20403;-82
2022/06/09 01:57:27;;;;;;;19.50;10.68;;;;;;;18.42;77.79;94629.94;4933153;29;20031;-83
2022/06/09 01:59:59;;;;;;;17.38;10.98;;;;;;;18.10;77.38;94569.88;4919840;29;20048;-83
2022/06/09 02:02:32;;;;;;;18.33;10.07;;;;;;;17.61;77.92;94521.56;4942926;29;20043;-82
2022/06/09 02:05:22;;;;;;;19.65;9.55;;;;;;;18.34;77.11;94638.88;4943677;29;20027;-83
2022/06/09 02:07:51;;;;;;;16.17;11.20;;;;;;;17.64;77.43;94523.56;4947969;29;20057;-83
2022/06/09 02:10:20;;;;;;;15.05;11.77;;;;;;;18.15;77.42;94636.75;4933419;29;20415;-82
2022/06/09 02:12:48;;;;;;;16.10;11.18;;;;;;;17.84;77.64;94601.59;4942636;29;20043;-83
2022/06/09 02:15:20;;;;;;;19.08;10.23;;;;;;;18.09;77.56;94628.13;4950631;29;20043;-83
2022/06/09 02:17:48;;;;;;;13.10;8.80;;;;;;;17.98;77.48;94636.94;4948688;28;20130;-82
2022/06/09 02:20:16;;;;;;;16.73;9.68;;;;;;;16.68;78.08;94428.41;4951338;29;20050;-82
2022/06/09 02:22:42;;;;;;;15.75;9.70;;;;;;;17.91;79.08;94636.72;4947414;29;20031;-83
2022/06/09 02:25:08;;;;;;;15.63;9.10;;;;;;;17.83;77.65;94632.22;4950871;29;20521;-82
2022/06/09 02:27:33;;;;;;;14.18;9.48;;;;;;;16.49;78.41;94449.47;4945004;29;20292;-82
2022/06/09 02:29:59;;;;;;;16.48;9.50;;;;;;;17.34;78.46;94568.47;4944297;28;20732;-82
2022/06/09 02:32:24;;;;;;;14.88;8.82;;;;;;;17.08;78.38;94533.13;4948977;29;20119;-82
2022/06/09 02:34:50;;;;;;;22.98;9.23;;;;;;;17.78;78.04;94651.19;4948716;29;20508;-83
2022/06/09 02:37:15;;;;;;;19.85;9.23;;;;;;;16.30;78.26;94451.84;4950673;29;20048;-83
2022/06/09 02:39:41;;;;;;;17.50;10.88;;;;;;;16.74;79.00;94502.06;4951215;29;20035;-82
2022/06/09 02:42:07;;;;;;;27.23;13.35;;;;;;;17.87;78.48;94647.31;4951002;28;20536;-82
2022/06/09 02:44:33;;;;;;;24.10;13.77;;;;;;;17.25;78.07;94573.13;4949722;29;20035;-82
2022/06/09 02:46:59;;;;;;;28.17;16.90;;;;;;;17.51;78.41;94645.28;4948284;29;20513;-83
2022/06/09 02:49:24;;;;;;;33.55;19.40;;;;;;;16.83;79.25;94539.47;4950805;29;20030;-83
2022/06/09 02:51:49;;;;;;;35.40;19.38;;;;;;;16.64;78.75;94493.63;4950205;29;20043;-83
2022/06/09 02:54:15;;;;;;;42.30;22.85;;;;;;;17.82;78.03;94652.88;4930596;29;20145;-83
2022/06/09 02:56:44;;;;;;;46.47;23.48;;;;;;;17.81;78.00;94621.81;4951482;29;20536;-83
2022/06/09 02:59:11;;;;;;;41.08;22.15;;;;;;;17.49;77.96;94572.44;4950973;29;20047;-82
2022/06/09 03:01:36;;;;;;;39.10;19.60;;;;;;;17.36;78.01;94552.06;4947656;28;20569;-82
2022/06/09 03:04:04;;;;;;;28.58;18.52;;;;;;;17.03;77.57;94536.00;4947123;29;20043;-82
2022/06/09 03:06:30;;;;;;;25.70;13.70;;;;;;;17.50;77.00;94643.69;4944044;29;20039;-83
2022/06/09 03:08:56;;;;;;;19.77;12.55;;;;;;;15.98;77.21;94394.50;4953695;29;20409;-83
2022/06/09 03:11:21;;;;;;;15.48;10.05;;;;;;;16.44;77.95;94517.38;4952832;29;20574;-83
2022/06/09 03:13:47;;;;;;;24.10;11.68;;;;;;;17.44;77.93;94636.19;4952645;28;20038;-82
2022/06/09 03:16:14;;;;;;;16.38;9.98;;;;;;;17.58;77.57;94658.13;4955757;29;20450;-84
2022/06/09 03:18:40;;;;;;;11.35;8.77;;;;;;;17.40;77.44;94657.50;4935235;29;20031;-82
2022/06/09 03:21:06;;;;;;;12.82;8.70;;;;;;;16.80;78.16;94573.03;4953781;29;20184;-82
2022/06/09 03:23:31;;;;;;;15.68;10.40;;;;;;;16.73;77.82;94555.94;4937057;29;20027;-82
2022/06/09 03:25:58;;;;;;;19.88;9.38;;;;;;;17.38;77.89;94646.34;4934498;29;20050;-82
2022/06/09 03:28:23;;;;;;;22.85;9.77;;;;;;;16.73;77.95;94534.50;4950983;29;20054;-82
2022/06/09 03:30:49;;;;;;;18.05;11.23;;;;;;;17.01;77.89;94565.03;4948964;29;20024;-82
2022/06/09 03:33:14;;;;;;;18.95;9.60;;;;;;;17.00;77.53;94581.41;4954253;29;20038;-82
2022/06/09 03:35:40;;;;;;;15.93;8.82;;;;;;;17.24;77.85;94600.28;4954446;29;20043;-82
2022/06/09 03:38:06;;;;;;;17.48;7.55;;;;;;;16.99;77.39;94577.94;4954161;29;20035;-82
2022/06/09 03:40:31;;;;;;;15.82;5.97;;;;;;;17.44;76.69;94655.75;4954086;29;20104;-82
2022/06/09 03:42:58;;;;;;;15.48;6.68;;;;;;;16.94;77.25;94556.69;4936143;29;20023;-82
2022/06/09 03:45:24;;;;;;;11.38;6.90;;;;;;;17.34;77.35;94623.97;4954111;29;20027;-82
2022/06/09 03:47:49;;;;;;;7.05;6.05;;;;;;;17.44;77.05;94628.16;4949566;29;20111;-82
2022/06/09 03:50:19;;;;;;;10.27;6.85;;;;;;;17.53;76.92;94645.72;4935772;29;20035;-82
2022/06/09 03:52:44;;;;;;;12.70;6.88;;;;;;;17.67;75.75;94648.94;4931122;29;20041;-82
2022/06/09 03:55:10;;;;;;;17.70;7.30;;;;;;;17.13;75.97;94548.19;4934619;29;20039;-82
2022/06/09 03:57:35;;;;;;;8.52;6.13;;;;;;;17.86;76.19;94644.94;4942369;29;20027;-83
2022/06/09 04:00:01;;;;;;;16.80;7.93;;;;;;;17.39;76.40;94540.69;4927919;29;20095;-82
2022/06/09 04:02:27;;;;;;;13.48;7.90;;;;;;;17.50;76.21;94541.84;4953509;29;20027;-82
2022/06/09 04:04:53;;;;;;;28.60;7.57;;;;;;;18.33;75.10;94648.03;4933768;29;20657;-82
2022/06/09 04:07:19;;;;;;;15.93;8.85;;;;;;;17.93;75.44;94610.31;4941146;29;20130;-82
2022/06/09 04:09:45;;;;;;;23.98;10.73;;;;;;;17.75;75.44;94585.59;4941510;29;20027;-82
2022/06/09 04:12:10;;;;;;;25.63;15.38;;;;;;;18.05;75.41;94629.13;4929232;29;20027;-82
2022/06/09 04:14:35;;;;;;;34.22;14.20;;;;;;;17.55;75.30;94514.81;4953274;28;20050;-83
2022/06/09 04:17:01;;;;;;;20.98;12.50;;;;;;;17.97;75.12;94571.78;4953224;29;20082;-82
2022/06/09 04:19:27;;;;;;;22.27;13.65;;;;;;;17.91;74.96;94554.34;4947693;29;20090;-81
2022/06/09 04:21:53;;;;;;;19.52;13.88;;;;;;;18.04;74.82;94560.47;4938055;29;20032;-82
2022/06/09 04:24:18;;;;;;;28.65;14.25;;;;;;;18.16;74.08;94575.81;4921670;29;20126;-83
2022/06/09 04:26:45;;;;;;;39.25;15.15;;;;;;;18.38;74.26;94594.94;4924958;29;20039;-82
2022/06/09 04:29:12;;;;;;;27.80;13.48;;;;;;;18.09;74.42;94546.84;4944879;29;20058;-82
2022/06/09 04:31:38;;;;;;;23.88;13.68;;;;;;;18.77;73.58;94639.13;4927922;29;20430;-83
2022/06/09 04:34:04;;;;;;;21.77;14.65;;;;;;;18.85;73.87;94637.44;4939839;29;20039;-82
2022/06/09 04:36:30;;;;;;;23.20;13.55;;;;;;;18.60;73.36;94576.81;4943378;29;20119;-83
2022/06/09 04:38:56;;;;;;;27.17;13.98;;;;;;;18.85;72.61;94592.53;4922059;29;20511;-84
2022/06/09 04:41:22;;;;;;;28.92;15.68;;;;;;;18.95;72.54;94593.97;4920040;29;20032;-84
2022/06/09 04:43:48;;;;;;;36.10;17.10;;;;;;;18.29;73.29;94513.75;4931662;29;20035;-84
2022/06/09 04:46:17;;;;;;;30.23;17.52;;;;;;;19.16;73.49;94594.56;4917635;29;20761;-84
2022/06/09 04:48:43;;;;;;;42.58;20.67;;;;;;;19.48;72.74;94632.34;4935941;29;20163;-84
2022/06/09 04:51:10;;;;;;;42.92;21.67;;;;;;;19.63;72.39;94637.78;4938277;29;20130;-84
2022/06/09 04:53:37;;;;;;;34.60;20.58;;;;;;;18.97;71.28;94540.69;4939002;29;20848;-84
2022/06/09 04:56:03;;;;;;;44.35;19.55;;;;;;;18.81;71.22;94521.03;4919821;29;20111;-84
2022/06/09 04:58:29;;;;;;;36.20;19.73;;;;;;;19.13;71.32;94540.75;4937161;29;20043;-85
2022/06/09 05:00:54;;;;;;;38.40;20.52;;;;;;;19.32;71.03;94559.69;4934580;29;20060;-84
2022/06/09 05:03:20;;;;;;;39.72;20.40;;;;;;;19.31;71.36;94584.22;4917436;29;20046;-84
2022/06/09 05:05:47;;;;;;;30.42;18.52;;;;;;;18.85;70.78;94514.63;4924099;29;20031;-84
2022/06/09 05:08:13;;;;;;;37.10;19.58;;;;;;;19.22;70.48;94549.44;4932839;29;20031;-84
2022/06/09 05:10:41;;;;;;;33.38;19.38;;;;;;;19.21;70.73;94543.28;4933473;29;20490;-84
2022/06/09 05:13:08;;;;;;;25.67;18.70;;;;;;;17.99;69.36;94356.81;4930326;29;20508;-84
2022/06/09 05:15:36;;;;;;;41.88;21.10;;;;;;;19.84;70.39;94634.09;4940248;29;20419;-84
2022/06/09 05:18:04;;;;;;;38.55;20.75;;;;;;;19.65;70.14;94634.75;4934631;29;20506;-84
2022/06/09 05:20:30;;;;;;;29.50;20.08;;;;;;;19.04;69.65;94522.06;4932156;29;20031;-84
2022/06/09 05:22:56;;;;;;;38.22;20.63;;;;;;;18.99;70.06;94535.75;4916609;29;20027;-84
2022/06/09 05:25:21;;;;;;;40.40;21.63;;;;;;;17.71;70.01;94354.84;4932295;28;20031;-84
2022/06/09 05:27:53;;;;;;;34.92;20.10;;;;;;;17.58;70.27;94318.44;4917213;29;20045;-84
2022/06/09 05:30:23;;;;;;;33.60;19.60;;;;;;;18.36;68.74;94413.84;4931419;29;20036;-84
2022/06/09 05:32:49;;;;;;;29.08;17.98;;;;;;;17.08;68.84;94194.81;4911863;29;20049;-84
2022/06/09 05:35:16;;;;;;;27.23;18.08;;;;;;;17.56;68.85;94309.16;4929344;29;20388;-84
2022/06/09 05:46:04;;;;;;;27.50;17.77;;;;;;;17.90;67.09;94297.16;4924579;29;20737;-84
2022/06/09 05:48:29;;;;;;;29.15;17.88;;;;;;;18.21;67.29;94353.63;4905149;29;20046;-84
2022/06/09 05:50:55;;;;;;;25.60;16.55;;;;;;;17.40;66.55;94201.84;4916084;29;20035;-85
2022/06/09 05:53:24;;;;;;;26.70;16.58;;;;;;;17.82;66.06;94300.75;4928167;29;20039;-84
2022/06/09 05:55:49;;;;;;;34.13;17.08;;;;;;;18.02;66.27;94283.69;4915363;29;20024;-83
2022/06/09 05:58:16;;;;;;;40.95;19.70;;;;;;;18.96;66.30;94441.59;4933856;29;20039;-85
2022/06/09 06:00:42;;;;;;;26.88;17.48;;;;;;;17.77;66.12;94288.38;4927908;28;20044;-84
2022/06/09 06:03:12;;;;;;;23.58;17.67;;;;;;;18.01;66.49;94319.69;4908323;29;20516;-84
2022/06/09 06:08:25;;;;;;;31.27;18.30;;;;;;;18.12;67.22;94288.56;4929146;29;20039;-84
2022/06/09 06:10:52;;;;;;;28.52;18.05;;;;;;;20.28;66.67;94621.38;4927200;29;20696;-84
2022/06/09 06:13:18;;;;;;;29.42;18.27;;;;;;;19.04;66.54;94421.88;4905178;29;20597;-83
2022/06/09 06:15:56;;;;;;;19.90;16.35;;;;;;;18.13;67.00;94357.22;4924477;29;20103;-84
2022/06/09 06:18:24;;;;;;;25.48;17.33;;;;;;;18.01;68.01;94374.13;4906827;29;20038;-86
2022/06/09 06:20:55;;;;;;;25.90;17.98;;;;;;;19.12;68.35;94518.47;4926563;29;20039;-83
2022/06/09 06:23:21;;;;;;;35.47;19.48;;;;;;;17.00;66.92;94120.72;4907955;29;20063;-83
2022/06/09 06:25:47;;;;;;;41.42;20.63;;;;;;;19.44;67.13;94481.66;4922244;29;20154;-84
2022/06/09 06:28:12;;;;;;;29.30;18.08;;;;;;;18.29;68.47;94325.84;4930955;29;20190;-83
2022/06/09 06:30:37;;;;;;;25.40;16.88;;;;;;;18.62;67.37;94317.53;4922609;29;20130;-83
2022/06/09 06:33:05;;;;;;;24.88;16.95;;;;;;;18.50;66.60;94317.59;4920907;29;20122;-84
2022/06/09 06:35:39;;;;;;;23.08;16.50;;;;;;;16.65;66.15;94019.50;4912891;29;20094;-81
2022/06/09 06:38:07;;;;;;;25.90;17.55;;;;;;;17.60;66.35;94155.34;4934508;28;20043;-82
2022/06/09 06:40:33;;;;;;;22.88;14.65;;;;;;;18.29;65.97;94223.09;4932976;29;20054;-82
2022/06/09 06:42:59;;;;;;;24.73;15.65;;;;;;;18.29;66.22;94244.56;4932980;29;20043;-82
2022/06/09 06:45:25;;;;;;;20.80;16.15;;;;;;;20.53;66.17;94543.88;4913686;29;20141;-82
2022/06/09 06:47:51;;;;;;;19.63;14.48;;;;;;;20.35;64.92;94520.03;4913185;29;20020;-83
2022/06/09 06:50:17;;;;;;;16.83;14.18;;;;;;;20.32;65.06;94501.06;4917228;29;20027;-82
2022/06/09 06:52:42;;;;;;;17.83;14.35;;;;;;;20.35;65.10;94511.19;4938804;28;20152;-82
2022/06/09 06:55:13;;;;;;;22.45;14.85;;;;;;;20.89;65.03;94610.13;4915913;29;20130;-83
2022/06/09 06:57:38;;;;;;;21.70;15.37;;;;;;;20.08;64.85;94506.66;4941934;29;20070;-83
2022/06/09 07:00:06;;;;;;;28.30;16.85;;;;;;;20.34;65.06;94534.63;4932469;29;20102;-83
2022/06/09 07:02:32;;;;;;;23.02;16.52;;;;;;;20.51;64.97;94540.78;4919267;29;20581;-83
2022/06/09 07:04:57;;;;;;;32.67;19.25;;;;;;;20.31;64.97;94507.56;4934485;29;20027;-83
2022/06/09 07:07:24;;;;;;;35.25;18.80;;;;;;;20.64;64.56;94536.81;4942410;29;20031;-83
2022/06/09 07:09:50;;;;;;;27.27;17.33;;;;;;;20.83;64.20;94608.84;4934006;29;20157;-82
2022/06/09 07:12:16;;;;;;;37.90;18.42;;;;;;;19.96;62.72;94456.41;4914441;29;20698;-82
2022/06/09 07:14:41;;;;;;;25.92;18.45;;;;;;;20.49;63.21;94594.19;4928955;29;20071;-83
2022/06/09 07:17:07;;;;;;;22.98;17.40;;;;;;;20.55;62.41;94561.25;4910383;29;20047;-83
2022/06/09 07:19:32;;;;;;;29.92;19.30;;;;;;;19.52;62.84;94479.97;4917776;28;20063;-83
2022/06/09 07:21:58;;;;;;;31.42;20.10;;;;;;;17.83;62.65;94224.53;4917330;29;20035;-82
2022/06/09 07:24:25;;;;;;;29.52;19.25;;;;;;;20.37;62.98;94570.84;4913077;29;20562;-83
2022/06/09 07:26:51;;;;;;;34.60;19.52;;;;;;;20.22;62.84;94541.97;4916247;29;20486;-83
2022/06/09 07:29:17;;;;;;;33.60;21.65;;;;;;;19.70;63.70;94456.16;4912303;29;20057;-82
2022/06/09 07:31:43;;;;;;;45.90;23.85;;;;;;;19.71;64.30;94482.72;4934740;29;20207;-82
2022/06/09 07:34:08;;;;;;;39.10;21.75;;;;;;;20.16;63.69;94538.78;4930155;29;20039;-82
2022/06/09 07:36:34;;;;;;;34.40;20.05;;;;;;;20.62;63.37;94590.25;4936987;28;20490;-82
2022/06/09 07:38:59;;;;;;;34.55;19.95;;;;;;;20.15;63.02;94504.13;4911161;29;20050;-83
2022/06/09 07:41:25;;;;;;;32.90;19.30;;;;;;;20.57;62.04;94587.84;4932577;29;20335;-83
2022/06/09 07:43:51;;;;;;;36.05;19.23;;;;;;;20.79;61.71;94584.50;4935873;29;20027;-83
2022/06/09 07:46:18;;;;;;;33.40;19.73;;;;;;;20.67;62.72;94580.00;4911070;29;20027;-83
2022/06/09 07:48:45;;;;;;;36.45;19.63;;;;;;;20.13;63.19;94458.75;4927960;29;20062;-83
2022/06/09 07:51:11;;;;;;;45.50;22.38;;;;;;;20.83;63.02;94557.63;4927941;29;20296;-83
2022/06/09 07:53:36;;;;;;;33.65;20.88;;;;;;;20.49;63.58;94541.13;4923570;29;20054;-83
2022/06/09 07:56:02;;;;;;;27.80;18.02;;;;;;;20.59;63.11;94526.31;4929880;29;20568;-83
2022/06/09 07:58:27;;;;;;;28.10;19.23;;;;;;;20.60;62.91;94519.78;4929648;29;20027;-83
2022/06/09 08:00:53;;;;;;;26.13;18.85;;;;;;;20.65;63.83;94536.47;4926537;29;20052;-83
2022/06/09 08:03:22;;;;;;;34.60;19.83;;;;;;;20.80;65.22;94546.41;4928215;29;20044;-83
2022/06/09 08:05:48;;;;;;;34.30;20.63;;;;;;;20.96;63.16;94548.28;4911179;29;20391;-83
2022/06/09 08:08:14;;;;;;;35.33;21.30;;;;;;;20.38;62.93;94462.00;4925756;29;20159;-83
2022/06/09 08:10:41;;;;;;;33.92;20.70;;;;;;;20.01;62.88;94378.09;4908503;29;20031;-83
2022/06/09 08:13:07;;;;;;;60.75;21.83;;;;;;;20.42;63.01;94422.47;4908197;29;20447;-83
2022/06/09 08:15:34;;;;;;;29.65;19.75;;;;;;;20.54;63.31;94437.69;4924550;29;20194;-84
2022/06/09 08:18:00;;;;;;;28.30;19.10;;;;;;;20.12;63.57;94372.94;4927668;29;20057;-83
2022/06/09 08:20:29;;;;;;;31.77;18.38;;;;;;;21.43;62.78;94548.88;4907827;29;20426;-83
2022/06/09 08:23:04;;;;;;;27.27;18.25;;;;;;;21.07;62.19;94476.47;4908902;29;20043;-83
2022/06/09 08:25:29;;;;;;;34.28;19.35;;;;;;;21.39;63.88;94514.84;4927494;29;20107;-83
2022/06/09 08:27:55;;;;;;;26.05;17.80;;;;;;;20.66;62.19;94394.47;4926824;29;20058;-83
2022/06/09 08:30:20;;;;;;;30.42;19.15;;;;;;;21.66;62.55;94529.22;4913108;29;20035;-84
2022/06/09 08:32:46;;;;;;;28.45;18.92;;;;;;;21.75;62.71;94544.03;4929116;29;20040;-83
2022/06/09 08:35:15;;;;;;;32.65;18.88;;;;;;;21.88;62.21;94542.72;4922286;29;20090;-84
2022/06/09 08:37:42;;;;;;;29.48;19.70;;;;;;;21.96;61.74;94524.72;4909448;29;20051;-84
2022/06/09 08:40:10;;;;;;;29.05;17.73;;;;;;;21.98;61.23;94529.78;4907357;29;20495;-83
2022/06/09 08:42:59;;;;;;;29.95;18.80;;;;;;;21.86;62.22;94531.50;4909391;29;20457;-83
2022/06/09 08:45:31;;;;;;;24.95;17.90;;;;;;;21.98;62.41;94533.25;4908136;29;20031;-84
2022/06/09 08:47:59;;;;;;;28.45;17.83;;;;;;;20.90;61.15;94383.38;4931084;29;20043;-83
2022/06/09 08:50:31;;;;;;;23.58;17.05;;;;;;;21.67;60.29;94479.50;4929428;29;20031;-83
2022/06/09 08:53:10;;;;;;;23.98;16.60;;;;;;;21.77;61.11;94482.38;4914234;29;20050;-83
2022/06/09 08:55:42;;;;;;;23.13;17.08;;;;;;;21.70;61.75;94455.28;4924632;29;20075;-83
2022/06/09 08:58:21;;;;;;;21.20;16.90;;;;;;;21.63;61.90;94479.44;4933746;29;20492;-83
2022/06/09 09:01:09;;;;;;;33.08;17.00;;;;;;;22.09;60.37;94520.72;4922356;28;20063;-83
2022/06/09 09:03:40;;;;;;;24.02;16.00;;;;;;;21.70;60.01;94449.09;4930106;29;20035;-84
2022/06/09 09:06:21;;;;;;;22.80;15.98;;;;;;;21.76;58.50;94456.53;4913494;29;20055;-84
2022/06/09 09:08:47;;;;;;;;;;;;;;;22.14;58.34;94503.44;4927793;29;20134;-83
2022/06/09 09:11:39;;;;;;;23.73;15.25;;;;;;;22.12;59.18;94467.94;4927132;29;20349;-84
2022/06/09 09:14:14;;;;;;;29.90;16.25;;;;;;;22.36;58.61;94502.59;4928241;29;20534;-83
2022/06/09 09:17:12;;;;;;;30.20;16.00;;;;;;;22.24;58.94;94456.91;4930460;29;20371;-83
2022/06/09 09:19:53;;;;;;;18.77;13.15;;;;;;;21.85;56.16;94400.38;4934391;29;20027;-83
2022/06/09 09:22:34;;;;;;;26.75;13.65;;;;;;;22.53;55.72;94491.28;4911731;29;20046;-83
2022/06/09 09:25:05;;;;;;;;;;;;;;;22.59;55.31;94479.00;4931024;29;20138;-83
2022/06/09 09:27:30;;;;;;;22.48;10.32;;;;;;;22.69;57.05;94488.38;4927420;29;19997;-83
2022/06/09 09:30:39;;;;;;;21.30;12.35;;;;;;;22.77;57.38;94483.88;4926394;29;20095;-84
2022/06/09 09:33:05;;;;;;;19.73;11.05;;;;;;;21.97;56.40;94345.41;4849682;29;20049;-83
2022/06/09 09:35:38;;;;;;;17.60;10.57;;;;;;;22.31;57.68;94411.88;4899910;29;20061;-83
2022/06/09 09:38:04;;;;;;;16.55;8.95;;;;;;;22.09;53.90;94382.22;4940678;29;20178;-83
2022/06/09 09:40:32;;;;;;;21.05;9.95;;;;;;;22.68;53.39;94463.28;4910671;29;20031;-84
2022/06/09 09:43:02;;;;;;;19.23;9.27;;;;;;;21.62;51.97;94240.44;4909942;29;20399;-83
2022/06/09 09:45:44;;;;;;;14.15;8.65;;;;;;;23.67;50.57;94460.94;4928011;29;20443;-83
2022/06/09 09:48:15;;;;;;;;;;;;;;;24.58;48.71;94456.56;4907408;29;20510;-83
2022/06/09 09:50:54;;;;;;;24.70;8.80;;;;;;;25.17;48.10;94454.53;4930181;29;20014;-84
2022/06/09 09:53:27;;;;;;;14.55;7.90;;;;;;;26.30;46.36;94443.78;4926352;29;20103;-84
2022/06/09 09:55:52;;;;;;;14.32;8.52;;;;;;;27.26;45.96;94454.34;4911849;29;20211;-84
2022/06/09 09:58:23;;;;;;;13.52;7.13;;;;;;;27.97;43.44;94415.75;4928036;29;20593;-84
2022/06/09 10:00:57;;;;;;;14.48;7.90;;;;;;;28.67;42.70;94408.09;4934272;29;20447;-84
2022/06/09 10:09:21;;;;;;;17.00;7.03;;;;;;;30.14;37.61;94387.28;4931992;29;20083;-85
2022/06/09 10:11:56;;;;;;;14.20;7.65;;;;;;;30.98;36.69;94403.28;4924198;29;20032;-84
2022/06/09 10:14:47;;;;;;;12.70;6.63;;;;;;;31.22;35.48;94365.63;4922643;29;20047;-84
2022/06/09 10:17:41;;;;;;;13.10;5.97;;;;;;;31.61;34.83;94424.28;4941887;29;20058;-83
2022/06/09 10:20:41;;;;;;;11.63;5.55;;;;;;;32.00;32.11;94426.91;4921251;29;20036;-85
2022/06/09 10:23:07;;;;;;;11.02;5.43;;;;;;;31.90;31.49;94416.16;4934208;29;20043;-85
2022/06/09 10:25:55;;;;;;;14.82;5.55;;;;;;;32.32;31.39;94417.91;4943008;29;20123;-85
2022/06/09 10:28:43;;;;;;;14.82;6.18;;;;;;;32.42;31.43;94418.84;4917327;29;20031;-85
2022/06/09 10:31:39;;;;;;;13.30;5.97;;;;;;;32.33;30.95;94424.16;4919100;29;20067;-84
2022/06/09 10:34:31;;;;;;;15.23;5.78;;;;;;;32.02;32.42;94415.50;4920252;29;20032;-84
2022/06/09 10:37:25;;;;;;;17.65;5.53;;;;;;;32.19;30.87;94406.84;4916095;29;20050;-84
2022/06/09 10:40:09;;;;;;;13.38;5.93;;;;;;;32.53;30.32;94406.34;4935004;29;20078;-84
2022/06/09 10:42:40;;;;;;;14.38;5.53;;;;;;;32.45;29.71;94372.06;4918229;29;20035;-84
2022/06/09 10:45:20;;;;;;;;;;;;;;;32.79;30.03;94401.00;4913173;29;20038;-84
2022/06/09 10:57:01;;;;;;;12.77;4.72;;;;;;;33.11;30.46;94392.59;4934449;29;20066;-84
2022/06/09 10:59:42;;;;;;;10.50;3.50;;;;;;;32.57;27.63;94346.66;4915443;29;20496;-83
2022/06/09 11:02:11;;;;;;;;;;;;;;;32.59;27.79;94390.91;4915785;29;20067;-84
2022/06/09 11:04:37;;;;;;;11.80;4.18;;;;;;;32.32;29.29;94387.72;4939237;29;20021;-84
2022/06/09 11:07:37;;;;;;;7.25;3.88;;;;;;;32.31;29.92;94388.16;4931287;29;20522;-83
2022/06/09 11:10:16;;;;;;;6.47;3.95;;;;;;;31.92;31.71;94395.34;4938729;29;20622;-82
2022/06/09 11:12:56;;;;;;;15.55;4.28;;;;;;;30.83;30.60;94305.44;4928246;29;20543;-83
2022/06/09 11:15:46;;;;;;;9.48;4.03;;;;;;;31.48;30.87;94376.81;4926601;29;20038;-83
2022/06/09 11:18:48;;;;;;;8.95;3.88;;;;;;;31.43;31.51;94347.97;4922623;29;20750;-83
2022/06/09 11:21:30;;;;;;;9.18;3.88;;;;;;;31.88;32.77;94348.06;4930594;29;20341;-83
2022/06/09 11:24:15;;;;;;;9.93;4.30;;;;;;;32.07;32.00;94314.28;4928132;28;20684;-84
2022/06/09 11:27:01;;;;;;;7.60;2.97;;;;;;;32.75;28.82;94364.63;4935760;29;20066;-83
2022/06/09 11:29:40;;;;;;;11.63;3.95;;;;;;;32.89;27.77;94364.97;4933212;29;20051;-83
2022/06/09 11:32:24;;;;;;;10.20;4.03;;;;;;;32.62;28.06;94361.81;4933591;29;20550;-84
2022/06/09 11:35:09;;;;;;;10.38;3.25;;;;;;;32.64;28.76;94364.13;4914234;29;20034;-84
2022/06/09 11:37:48;;;;;;;9.32;3.58;;;;;;;32.29;28.22;94352.13;4923866;29;20061;-83
2022/06/09 11:40:42;;;;;;;7.47;4.05;;;;;;;32.08;28.22;94348.72;4925944;29;20042;-83
2022/06/09 11:43:26;;;;;;;12.30;3.85;;;;;;;31.64;28.85;94335.75;4953453;29;20062;-84
2022/06/09 11:46:01;;;;;;;9.23;3.85;;;;;;;30.45;29.82;94270.25;4948237;29;20083;-83
2022/06/09 11:48:32;;;;;;;4.50;3.67;;;;;;;30.74;30.83;94322.47;4935649;29;20035;-83
2022/06/09 11:51:00;;;;;;;8.43;3.75;;;;;;;29.82;30.71;94319.47;4944201;29;20043;-82
2022/06/09 11:53:51;;;;;;;10.48;4.32;;;;;;;30.45;30.28;94316.75;4931253;29;20569;-84
2022/06/09 11:56:33;;;;;;;7.35;3.80;;;;;;;30.39;29.97;94312.97;4914738;29;20125;-84
2022/06/09 11:59:15;;;;;;;10.40;3.75;;;;;;;30.06;30.54;94230.00;4933122;29;20086;-84
2022/06/09 12:01:41;;;;;;;6.80;3.70;;;;;;;30.98;30.11;94307.47;4894450;29;20023;-85
2022/06/09 12:04:45;;;;;;;11.75;4.13;;;;;;;30.90;30.20;94314.28;4898409;29;20533;-84